Time;durP1;ratioP1;P1;durP2;ratioP2;P2;SDS_P1;SDS_P2;PMS_P1;PMS_P2;Temp;Humidity;BMP_temperature;BMP_pressure;BME280_temperature;BME280_humidity;BME280_pressure;Samples;Min_cycle;Max_cycle;Signal;HPM_P1;HPM_P2
2023/03/31 00:02:06;;;;;;;13.90;10.10;;;;;;;7.57;93.09;95915.55;108940;1273;54235;-83
2023/03/31 00:04:51;;;;;;;13.70;10.40;;;;;;;7.59;93.09;95910.67;109085;1275;23700;-83
2023/03/31 00:07:26;;;;;;;12.90;9.70;;;;;;;7.60;92.91;95915.02;109117;1269;22664;-82
2023/03/31 00:10:00;;;;;;;11.50;8.60;;;;;;;7.59;93.02;95920.23;109133;1275;23306;-82
2023/03/31 00:12:32;;;;;;;11.60;8.40;;;;;;;7.61;93.12;95922.06;109041;1265;110600;-82
2023/03/31 00:15:03;;;;;;;11.80;8.80;;;;;;;7.66;93.15;95926.19;109147;1275;22486;-82
2023/03/31 00:17:46;;;;;;;13.70;9.10;;;;;;;7.70;93.08;95929.54;109093;1271;22525;-83
2023/03/31 00:20:20;;;;;;;13.40;9.80;;;;;;;7.75;92.95;95928.66;109067;1275;24216;-82
2023/03/31 00:22:49;;;;;;;13.10;9.70;;;;;;;7.78;92.68;95927.58;107681;1269;1833804;-82
2023/03/31 00:25:21;;;;;;;13.90;8.90;;;;;;;7.81;92.43;95924.96;109146;1275;22545;-83
2023/03/31 00:28:00;;;;;;;12.80;7.40;;;;;;;7.83;92.41;95919.04;109115;1275;22556;-83
2023/03/31 00:30:34;;;;;;;12.60;8.60;;;;;;;7.83;92.23;95923.46;109112;1275;23723;-82
2023/03/31 00:33:22;;;;;;;13.10;9.90;;;;;;;7.83;92.11;95921.73;109146;1275;22524;-83
2023/03/31 00:36:00;;;;;;;12.10;9.60;;;;;;;7.82;92.09;95917.56;109133;1268;24914;-83
2023/03/31 00:38:34;;;;;;;11.20;8.70;;;;;;;7.82;92.03;95907.44;109098;1275;22490;-83
2023/03/31 00:41:12;;;;;;;12.90;8.80;;;;;;;7.81;92.08;95902.48;109043;1273;50752;-83
2023/03/31 00:44:07;;;;;;;11.20;8.50;;;;;;;7.79;92.15;95908.69;109080;1272;22464;-83
2023/03/31 00:46:51;;;;;;;13.40;8.70;;;;;;;7.77;92.02;95906.33;109189;1275;25470;-82
2023/03/31 00:49:28;;;;;;;9.60;7.00;;;;;;;7.77;92.28;95902.53;109097;1275;24228;-83
2023/03/31 00:52:18;;;;;;;8.20;6.30;;;;;;;7.78;92.12;95894.66;109031;1275;98325;-83
2023/03/31 00:54:53;;;;;;;12.00;8.70;;;;;;;7.77;92.21;95891.98;109111;1272;23826;-83
2023/03/31 00:57:35;;;;;;;9.50;8.10;;;;;;;7.75;92.20;95891.73;109056;1272;22565;-82
2023/03/31 01:00:17;;;;;;;12.00;8.70;;;;;;;7.74;92.34;95891.47;109119;1275;24062;-83
2023/03/31 01:02:57;;;;;;;10.30;7.80;;;;;;;7.76;92.42;95887.77;107500;1272;2151093;-83
2023/03/31 01:05:32;;;;;;;11.30;7.00;;;;;;;7.81;92.58;95894.95;109115;1275;22660;-83
2023/03/31 01:08:07;;;;;;;11.50;8.20;;;;;;;7.84;92.43;95889.89;109066;1275;25644;-82
2023/03/31 01:10:43;;;;;;;10.00;7.60;;;;;;;7.85;92.25;95888.83;107780;1268;1782253;-82
2023/03/31 01:13:22;;;;;;;10.00;7.50;;;;;;;7.86;92.41;95887.71;109123;1269;22528;-82
2023/03/31 01:15:52;;;;;;;10.50;7.90;;;;;;;7.89;92.37;95885.59;109100;1269;24238;-82
2023/03/31 01:18:28;;;;;;;9.30;7.60;;;;;;;7.93;92.33;95888.71;109032;1275;22481;-82
2023/03/31 01:21:41;;;;;;;10.00;7.10;;;;;;;7.93;92.08;95891.92;107683;1272;1855558;-82
2023/03/31 01:24:46;;;;;;;9.50;7.30;;;;;;;7.91;92.05;95897.50;109051;1268;22485;-82
2023/03/31 01:27:54;;;;;;;9.40;6.90;;;;;;;7.87;91.97;95896.58;109048;1275;22523;-82
2023/03/31 01:31:05;;;;;;;9.60;7.90;;;;;;;7.85;92.03;95895.06;108558;1275;22557;-83
2023/03/31 01:33:58;;;;;;;9.90;7.20;;;;;;;7.85;92.18;95892.41;108562;1282;25274;-82
2023/03/31 01:36:58;;;;;;;10.50;7.10;;;;;;;7.85;92.10;95895.95;108953;1272;24298;-82
2023/03/31 01:40:01;;;;;;;10.30;7.00;;;;;;;7.87;92.33;95896.35;109033;1269;22548;-82
2023/03/31 01:42:34;;;;;;;11.00;7.40;;;;;;;7.88;92.31;95889.59;107617;1271;1944970;-82
2023/03/31 01:45:16;;;;;;;10.90;7.30;;;;;;;7.89;92.25;95894.20;109078;1275;22626;-82
2023/03/31 01:47:57;;;;;;;10.20;8.10;;;;;;;7.88;92.07;95892.02;109153;1275;22602;-82
2023/03/31 01:50:32;;;;;;;10.20;8.30;;;;;;;7.86;92.02;95892.46;109123;1275;22657;-82
2023/03/31 01:53:14;;;;;;;10.50;7.70;;;;;;;7.83;91.97;95892.39;109050;1275;106851;-82
2023/03/31 01:55:59;;;;;;;9.70;7.20;;;;;;;7.83;92.17;95894.23;109131;1275;22469;-83
2023/03/31 01:58:34;;;;;;;10.90;7.90;;;;;;;7.86;92.18;95899.05;109150;1268;22579;-83
2023/03/31 02:01:24;;;;;;;12.10;7.30;;;;;;;7.87;92.13;95902.16;109016;1272;112455;-83
2023/03/31 02:03:57;;;;;;;10.10;7.30;;;;;;;7.88;92.10;95895.94;109130;1275;22554;-82
2023/03/31 02:06:33;;;;;;;8.40;7.00;;;;;;;7.90;91.97;95895.28;109061;1275;22536;-82
2023/03/31 02:09:11;;;;;;;9.80;7.70;;;;;;;7.92;91.86;95896.53;109069;1269;22485;-83
2023/03/31 02:11:55;;;;;;;11.40;6.90;;;;;;;7.91;91.85;95905.95;109004;1272;109002;-82
2023/03/31 02:14:34;;;;;;;8.90;6.90;;;;;;;7.87;91.75;95907.92;109054;1276;22591;-83
2023/03/31 02:17:07;;;;;;;9.50;6.70;;;;;;;7.84;91.73;95911.21;109061;1274;25501;-82
2023/03/31 02:19:43;;;;;;;10.60;7.40;;;;;;;7.82;91.79;95912.66;109021;1276;23702;-83
2023/03/31 02:22:27;;;;;;;10.00;7.20;;;;;;;7.79;91.69;95909.47;103495;1268;7699159;-83
2023/03/31 02:25:08;;;;;;;11.50;6.90;;;;;;;7.77;91.81;95908.75;109087;1272;23703;-82
2023/03/31 02:27:43;;;;;;;9.10;6.70;;;;;;;7.75;91.83;95907.45;109131;1275;23825;-83
2023/03/31 02:30:15;;;;;;;9.90;6.70;;;;;;;7.74;91.85;95908.81;109114;1275;22616;-83
2023/03/31 02:32:46;;;;;;;8.50;6.90;;;;;;;7.72;91.78;95906.02;107689;1271;1866970;-83
2023/03/31 02:35:35;;;;;;;9.20;7.20;;;;;;;7.73;91.82;95906.71;109088;1275;24193;-83
2023/03/31 02:38:18;;;;;;;9.00;5.80;;;;;;;7.75;91.84;95904.07;109087;1272;22488;-82
2023/03/31 02:40:56;;;;;;;7.50;5.90;;;;;;;7.81;91.82;95902.12;109040;1275;23785;-82
2023/03/31 02:43:29;;;;;;;9.30;6.30;;;;;;;7.81;91.64;95906.77;107624;1272;1793823;-82
2023/03/31 02:46:03;;;;;;;7.10;5.50;;;;;;;7.84;91.56;95906.20;109136;1275;24330;-83
2023/03/31 02:48:39;;;;;;;8.70;5.00;;;;;;;7.87;91.28;95902.05;109082;1269;22493;-82
2023/03/31 02:51:39;;;;;;;7.40;5.30;;;;;;;7.88;90.97;95901.16;109030;1276;22545;-83
2023/03/31 02:54:32;;;;;;;8.30;5.80;;;;;;;7.89;90.89;95890.39;109066;1274;22455;-83
2023/03/31 02:57:27;;;;;;;8.40;5.50;;;;;;;7.88;90.74;95894.14;109015;1276;22522;-82
2023/03/31 03:00:16;;;;;;;7.30;5.60;;;;;;;7.90;90.42;95889.59;109035;1276;25413;-83
2023/03/31 03:03:02;;;;;;;7.70;5.40;;;;;;;7.90;90.41;95891.44;109198;1272;78446;-82
2023/03/31 03:05:44;;;;;;;7.10;5.50;;;;;;;7.89;90.19;95888.87;109057;1275;23122;-83
2023/03/31 03:08:27;;;;;;;7.40;5.50;;;;;;;7.86;90.24;95885.39;109084;1273;23743;-83
2023/03/31 03:11:13;;;;;;;9.10;6.10;;;;;;;7.83;90.30;95886.58;109102;1253;22724;-83
2023/03/31 03:13:49;;;;;;;8.60;4.90;;;;;;;7.81;90.30;95885.07;107746;1271;1779629;-82
2023/03/31 03:16:26;;;;;;;7.50;4.90;;;;;;;7.79;90.28;95890.90;109151;1272;23160;-83
2023/03/31 03:19:04;;;;;;;6.80;4.90;;;;;;;7.78;90.22;95887.38;109067;1275;22492;-82
2023/03/31 03:21:38;;;;;;;6.50;4.80;;;;;;;7.79;90.17;95888.10;109064;1269;101807;-82
2023/03/31 03:24:14;;;;;;;7.20;4.50;;;;;;;7.79;90.17;95886.73;109111;1275;25300;-82
2023/03/31 03:26:45;;;;;;;6.60;4.80;;;;;;;7.81;90.01;95889.81;109072;1273;22624;-83
2023/03/31 03:29:38;;;;;;;5.10;4.20;;;;;;;7.80;89.92;95892.58;109112;1275;24275;-82
2023/03/31 03:32:10;;;;;;;6.80;4.50;;;;;;;7.82;89.87;95894.56;109030;1272;37722;-82
2023/03/31 03:34:46;;;;;;;6.00;4.30;;;;;;;7.84;89.66;95897.70;109066;1275;22486;-82
2023/03/31 03:37:17;;;;;;;6.00;4.30;;;;;;;7.88;89.53;95894.09;109096;1268;22568;-82
2023/03/31 03:39:46;;;;;;;6.30;4.00;;;;;;;7.91;89.31;95891.22;109058;1275;23972;-83
2023/03/31 03:42:16;;;;;;;5.30;4.10;;;;;;;7.93;89.03;95886.86;109015;1269;130279;-82
2023/03/31 03:44:45;;;;;;;7.90;4.30;;;;;;;7.94;88.83;95886.32;109066;1275;22561;-82
2023/03/31 03:47:16;;;;;;;5.90;3.30;;;;;;;7.94;88.60;95881.05;109101;1275;22655;-83
2023/03/31 03:49:53;;;;;;;3.90;3.20;;;;;;;7.96;88.41;95878.80;109088;1275;22529;-83
2023/03/31 03:52:39;;;;;;;;;;;;;;;;;;;;;
2023/03/31 03:55:11;;;;;;;4.60;3.60;;;;;;;8.03;87.87;95884.92;109034;1272;23340;-83
2023/03/31 03:57:44;;;;;;;4.50;3.50;;;;;;;8.03;87.67;95886.55;109023;1269;22531;-83
2023/03/31 04:00:19;;;;;;;7.40;3.90;;;;;;;8.00;87.60;95886.52;109091;1275;22546;-83
2023/03/31 04:05:39;;;;;;;4.90;3.10;;;;;;;7.96;87.56;95878.44;109121;1269;22585;-83
2023/03/31 04:08:13;;;;;;;5.00;3.60;;;;;;;7.94;87.49;95868.33;109063;1269;22581;-83
2023/03/31 04:10:46;;;;;;;6.10;3.80;;;;;;;7.93;87.38;95868.45;109097;1275;22631;-83
2023/03/31 04:13:18;;;;;;;5.90;3.10;;;;;;;7.92;87.42;95868.40;109023;1268;111541;-83
2023/03/31 04:15:48;;;;;;;3.50;2.50;;;;;;;7.91;87.53;95868.62;109095;1275;23315;-83
2023/03/31 04:18:21;;;;;;;;;;;;;;;7.90;87.59;95864.67;109106;1262;22595;-84
2023/03/31 04:21:05;;;;;;;7.00;3.40;;;;;;;7.88;87.68;95860.98;109083;1275;22524;-83
2023/03/31 04:23:37;;;;;;;5.20;3.30;;;;;;;7.85;87.52;95861.75;103526;1269;7137704;-83
2023/03/31 04:26:14;;;;;;;5.80;3.30;;;;;;;7.82;87.59;95857.88;109150;1269;23335;-83
2023/03/31 04:28:49;;;;;;;5.70;3.80;;;;;;;7.79;87.63;95854.43;109065;1275;23771;-83
2023/03/31 04:31:24;;;;;;;4.90;3.60;;;;;;;7.76;87.68;95847.29;109070;1275;22582;-83
2023/03/31 04:34:01;;;;;;;4.90;3.30;;;;;;;7.70;87.70;95849.02;107742;1269;1797383;-83
2023/03/31 04:36:40;;;;;;;5.50;4.00;;;;;;;7.63;87.90;95839.86;109099;1275;23531;-83
2023/03/31 04:39:22;;;;;;;;;;;;;;;;;;;;;
2023/03/31 04:41:53;;;;;;;5.90;4.40;;;;;;;7.53;88.11;95839.89;109144;1275;22470;-83
2023/03/31 04:44:39;;;;;;;8.80;4.00;;;;;;;7.44;88.40;95835.33;108908;1275;22654;-83
2023/03/31 04:47:18;;;;;;;7.10;4.50;;;;;;;7.36;88.56;95837.19;109121;1275;23674;-83
2023/03/31 04:49:56;;;;;;;5.90;4.00;;;;;;;7.32;88.86;95842.80;109131;1275;22568;-83
2023/03/31 04:52:37;;;;;;;6.00;4.00;;;;;;;7.32;89.14;95842.33;109058;1275;74088;-82
2023/03/31 04:55:13;;;;;;;6.70;4.20;;;;;;;7.32;89.52;95841.01;109134;1271;22548;-83
2023/03/31 04:57:44;;;;;;;5.20;3.70;;;;;;;7.32;89.60;95836.59;109049;1275;23402;-83
2023/03/31 05:00:22;;;;;;;5.00;3.90;;;;;;;7.30;89.37;95831.48;109126;1272;22532;-83
2023/03/31 05:03:01;;;;;;;5.50;4.10;;;;;;;7.29;89.31;95832.75;108972;1275;131282;-83
2023/03/31 05:05:34;;;;;;;7.50;3.70;;;;;;;7.32;89.33;95834.75;109122;1269;24379;-83
2023/03/31 05:08:11;;;;;;;6.20;4.10;;;;;;;7.31;89.30;95837.85;109128;1275;23481;-83
2023/03/31 05:10:45;;;;;;;6.10;4.00;;;;;;;7.26;89.37;95833.56;109013;1273;22518;-83
2023/03/31 05:13:26;;;;;;;5.70;4.20;;;;;;;7.26;89.42;95826.71;109036;1275;74622;-82
2023/03/31 05:15:55;;;;;;;6.80;4.70;;;;;;;7.30;89.37;95822.30;109047;1269;22840;-83
2023/03/31 05:18:30;;;;;;;5.80;4.20;;;;;;;7.38;89.71;95820.34;109090;1265;22564;-83
2023/03/31 05:21:16;;;;;;;6.10;4.40;;;;;;;7.75;90.71;95816.57;109103;1275;22641;-83
2023/03/31 05:24:03;;;;;;;6.10;4.30;;;;;;;8.95;90.13;95816.83;104819;1254;5517216;-83
2023/03/31 05:26:35;;;;;;;5.60;4.00;;;;;;;9.89;87.57;95814.23;109086;1253;22636;-83
2023/03/31 05:29:06;;;;;;;6.60;4.60;;;;;;;10.25;83.65;95816.92;109077;1275;24901;-83
2023/03/31 05:31:40;;;;;;;6.80;4.30;;;;;;;9.94;82.58;95818.98;109113;1275;22476;-83
2023/03/31 05:34:18;;;;;;;6.20;4.30;;;;;;;9.73;82.66;95815.11;105038;1273;5288653;-83
2023/03/31 05:36:52;;;;;;;5.30;3.70;;;;;;;9.64;82.69;95809.55;109398;1275;22535;-83
2023/03/31 05:39:36;;;;;;;;;;;;;;;;;;;;;
2023/03/31 05:42:08;;;;;;;5.90;4.10;;;;;;;9.59;82.67;95801.48;108979;1275;23176;-83
2023/03/31 05:44:44;;;;;;;6.20;3.60;;;;;;;9.68;82.80;95801.16;107729;1275;1787117;-83
2023/03/31 05:47:27;;;;;;;4.90;3.50;;;;;;;10.31;82.83;95801.95;109076;1269;21833;-83
2023/03/31 05:50:06;;;;;;;4.70;3.20;;;;;;;10.53;81.06;95799.30;109150;1275;22495;-83
2023/03/31 05:52:40;;;;;;;7.00;4.10;;;;;;;10.24;79.87;95795.31;107823;1269;1882094;-83
2023/03/31 05:55:18;;;;;;;4.10;2.90;;;;;;;9.94;79.75;95792.70;109108;1275;23836;-83
2023/03/31 05:57:47;;;;;;;3.30;2.40;;;;;;;9.71;79.51;95793.77;109041;1273;25313;-83
2023/03/31 06:00:22;;;;;;;5.20;3.00;;;;;;;9.49;79.83;95794.15;109062;1273;24979;-83
2023/03/31 06:02:53;;;;;;;5.70;2.90;;;;;;;9.38;80.46;95792.85;108938;1270;73079;-83
2023/03/31 06:05:25;;;;;;;5.60;3.90;;;;;;;9.35;80.80;95793.21;109062;1275;25307;-82
2023/03/31 06:08:07;;;;;;;5.80;4.10;;;;;;;9.31;81.24;95792.48;109059;1275;22650;-83
2023/03/31 06:10:44;;;;;;;7.00;4.40;;;;;;;9.34;81.52;95790.91;109020;1276;24269;-82
2023/03/31 06:13:25;;;;;;;7.10;4.20;;;;;;;9.33;81.43;95791.98;109003;1272;86045;-83
2023/03/31 06:16:01;;;;;;;8.10;4.40;;;;;;;9.35;81.65;95791.32;109045;1275;22628;-83
2023/03/31 06:18:34;;;;;;;6.70;4.70;;;;;;;9.35;81.87;95794.69;109203;1269;25313;-83
2023/03/31 06:21:15;;;;;;;5.80;4.00;;;;;;;9.30;81.83;95799.60;109115;1273;24213;-83
2023/03/31 06:23:48;;;;;;;5.90;4.10;;;;;;;9.26;82.14;95795.88;107762;1272;1825806;-82
2023/03/31 06:26:21;;;;;;;7.50;4.60;;;;;;;9.33;82.33;95797.70;109136;1275;22500;-82
2023/03/31 06:28:53;;;;;;;4.70;3.40;;;;;;;9.47;82.10;95795.87;109097;1275;22554;-83
2023/03/31 06:31:30;;;;;;;5.00;3.40;;;;;;;9.58;81.71;95798.33;109153;1275;25258;-83
2023/03/31 06:34:02;;;;;;;4.50;3.00;;;;;;;9.65;81.42;95795.14;104968;1275;5453071;-82
2023/03/31 06:36:41;;;;;;;4.70;2.90;;;;;;;9.72;81.64;95799.94;109118;1275;22575;-83
2023/03/31 06:39:12;;;;;;;3.50;3.00;;;;;;;9.84;81.62;95794.64;109101;1273;23517;-82
2023/03/31 06:41:47;;;;;;;4.10;2.60;;;;;;;9.91;81.10;95790.38;109063;1275;25029;-82
2023/03/31 06:44:21;;;;;;;5.80;3.00;;;;;;;9.96;80.75;95793.82;109027;1275;85064;-83
2023/03/31 06:46:53;;;;;;;5.20;3.70;;;;;;;10.03;80.22;95790.27;109025;1270;25319;-83
2023/03/31 06:49:25;;;;;;;5.90;3.30;;;;;;;10.61;80.75;95789.25;109100;1275;22837;-83
2023/03/31 06:51:57;;;;;;;5.50;3.20;;;;;;;12.67;80.38;95778.79;109064;1275;22598;-83
2023/03/31 06:54:41;;;;;;;4.60;3.10;;;;;;;15.07;76.79;95782.27;107717;1275;1856078;-84
2023/03/31 06:57:21;;;;;;;5.20;3.50;;;;;;;16.79;71.24;95779.64;109105;1272;22576;-84
2023/03/31 07:00:03;;;;;;;4.00;3.20;;;;;;;17.84;64.00;95777.23;109119;1275;22579;-84
2023/03/31 07:02:38;;;;;;;4.90;3.60;;;;;;;18.06;59.97;95780.45;109144;1275;24224;-84
2023/03/31 07:05:26;;;;;;;;;;;;;;;;;;;;;
2023/03/31 07:08:21;;;;;;;5.70;2.90;;;;;;;19.55;56.13;95785.70;108844;1271;23620;-84
2023/03/31 07:10:59;;;;;;;3.40;2.60;;;;;;;19.73;52.18;95784.05;108988;1276;22601;-84
2023/03/31 07:13:40;;;;;;;3.40;2.90;;;;;;;19.22;49.91;95782.21;108966;1275;132268;-84
2023/03/31 07:16:14;;;;;;;3.50;3.20;;;;;;;19.28;50.48;95778.72;109145;1275;23023;-84
2023/03/31 07:18:44;;;;;;;4.60;3.10;;;;;;;19.60;49.86;95782.19;109130;1273;23134;-83
2023/03/31 07:21:16;;;;;;;4.50;3.60;;;;;;;20.08;48.09;95783.59;109064;1275;25278;-83
2023/03/31 07:23:49;;;;;;;4.20;2.70;;;;;;;21.00;50.42;95777.73;109029;1275;105594;-83
2023/03/31 07:26:23;;;;;;;4.30;3.20;;;;;;;21.96;49.11;95779.16;109066;1269;22541;-83
2023/03/31 07:28:55;;;;;;;5.10;2.50;;;;;;;22.66;46.46;95774.41;109111;1275;22499;-83
2023/03/31 07:31:27;;;;;;;3.80;3.30;;;;;;;22.62;44.75;95773.23;109035;1272;22637;-83
2023/03/31 07:33:58;;;;;;;4.80;3.70;;;;;;;22.31;44.53;95767.14;107729;1272;1814080;-83
2023/03/31 07:36:27;;;;;;;3.60;3.00;;;;;;;22.80;44.82;95765.41;109068;1275;25345;-83
2023/03/31 07:39:08;;;;;;;5.00;3.20;;;;;;;23.26;44.35;95767.02;109064;1275;25244;-83
2023/03/31 07:41:51;;;;;;;;;;;;;;;;;;;;;
2023/03/31 07:44:23;;;;;;;4.40;2.60;;;;;;;25.14;41.75;95747.17;107656;1275;1897888;-83
2023/03/31 07:46:56;;;;;;;4.80;2.50;;;;;;;24.17;38.29;95752.54;109105;1275;25242;-83
2023/03/31 07:49:30;;;;;;;3.80;2.30;;;;;;;22.65;38.01;95745.52;109033;1274;23741;-83
2023/03/31 07:52:03;;;;;;;5.80;2.70;;;;;;;21.02;39.07;95741.03;109122;1275;23818;-83
2023/03/31 07:54:47;;;;;;;4.30;2.70;;;;;;;19.91;41.04;95746.33;107532;1275;2069128;-83
2023/03/31 07:57:21;;;;;;;6.20;2.90;;;;;;;19.39;42.00;95744.46;109112;1275;22779;-83
2023/03/31 07:59:55;;;;;;;3.90;2.70;;;;;;;19.27;42.76;95743.46;109079;1275;22574;-83
2023/03/31 08:02:29;;;;;;;3.50;2.50;;;;;;;19.64;43.43;95753.29;109075;1275;22530;-83
2023/03/31 08:05:04;;;;;;;4.40;2.90;;;;;;;20.38;42.46;95740.17;104837;1276;5488432;-83
2023/03/31 08:07:35;;;;;;;3.60;2.50;;;;;;;20.98;42.16;95732.05;109131;1275;25019;-83
2023/03/31 08:10:15;;;;;;;4.60;2.50;;;;;;;21.08;39.89;95727.48;109059;1252;22532;-83
2023/03/31 08:12:50;;;;;;;3.70;2.40;;;;;;;20.52;40.71;95726.46;109071;1275;22588;-83
2023/03/31 08:15:24;;;;;;;5.30;2.70;;;;;;;21.07;42.01;95730.33;105079;1273;5228527;-83
2023/03/31 08:17:53;;;;;;;4.40;2.50;;;;;;;21.40;39.82;95725.94;109162;1254;22827;-83
2023/03/31 08:20:24;;;;;;;2.60;1.80;;;;;;;21.02;39.88;95726.80;109083;1275;23351;-83
2023/03/31 08:23:10;;;;;;;3.60;2.10;;;;;;;20.36;39.58;95724.42;109107;1275;22560;-83
2023/03/31 08:25:46;;;;;;;2.80;1.90;;;;;;;19.35;41.33;95722.58;109150;1275;24253;-83
2023/03/31 08:28:16;;;;;;;2.60;1.90;;;;;;;19.24;41.65;95718.75;109097;1272;22451;-83
2023/03/31 08:30:45;;;;;;;2.20;1.80;;;;;;;19.13;41.65;95720.30;109193;1273;25413;-84
2023/03/31 08:33:18;;;;;;;3.80;1.90;;;;;;;19.59;42.63;95711.46;109041;1274;103229;-83
2023/03/31 08:35:50;;;;;;;3.60;1.70;;;;;;;20.21;41.72;95710.75;109139;1270;22491;-83
2023/03/31 08:38:29;;;;;;;1.90;1.10;;;;;;;21.02;40.04;95706.33;109107;1270;22678;-83
2023/03/31 08:41:04;;;;;;;2.70;1.30;;;;;;;20.41;39.46;95711.35;109033;1269;22614;-83
2023/03/31 08:43:40;;;;;;;3.60;1.70;;;;;;;20.60;40.72;95712.63;107440;1275;2144562;-82
2023/03/31 08:46:17;;;;;;;3.40;1.40;;;;;;;20.74;38.49;95698.65;109092;1275;22522;-83
2023/03/31 08:48:55;;;;;;;2.30;1.00;;;;;;;19.44;40.43;95704.53;109104;1254;22565;-83
2023/03/31 08:51:31;;;;;;;2.80;1.50;;;;;;;17.83;42.12;95697.13;109143;1275;22590;-83
2023/03/31 08:54:07;;;;;;;3.20;1.50;;;;;;;16.17;45.39;95692.04;108983;1270;143030;-83
2023/03/31 08:56:41;;;;;;;3.20;1.40;;;;;;;16.58;46.58;95699.88;108995;1275;22465;-83
2023/03/31 08:59:22;;;;;;;4.20;1.40;;;;;;;18.14;44.92;95698.52;109136;1275;22540;-83
2023/03/31 09:02:00;;;;;;;1.90;1.10;;;;;;;19.04;43.62;95685.73;109152;1275;22560;-83
2023/03/31 09:04:51;;;;;;;4.70;1.60;;;;;;;19.30;42.19;95691.16;109101;1272;35541;-83
2023/03/31 09:07:30;;;;;;;2.50;1.40;;;;;;;18.41;43.72;95674.39;109137;1275;22538;-83
2023/03/31 09:10:22;;;;;;;2.20;1.30;;;;;;;17.71;43.95;95667.11;109142;1268;22619;-82
2023/03/31 09:12:58;;;;;;;4.10;1.40;;;;;;;15.68;45.84;95669.67;109063;1275;23359;-83
2023/03/31 09:15:39;;;;;;;3.30;1.70;;;;;;;14.41;49.10;95672.65;108945;1275;120727;-83
2023/03/31 09:18:18;;;;;;;2.40;1.10;;;;;;;13.81;50.79;95671.83;109132;1275;22592;-83
2023/03/31 09:21:00;;;;;;;2.60;1.10;;;;;;;13.51;51.52;95660.52;109135;1275;22571;-82
2023/03/31 09:23:37;;;;;;;2.80;1.20;;;;;;;13.00;53.10;95662.42;109067;1269;73505;-83
2023/03/31 09:26:21;;;;;;;3.60;1.00;;;;;;;12.64;54.11;95661.56;109129;1275;22564;-83
2023/03/31 09:28:53;;;;;;;3.10;0.90;;;;;;;12.47;55.34;95647.34;109111;1275;25374;-83
2023/03/31 09:31:30;;;;;;;2.70;1.00;;;;;;;12.56;56.35;95643.30;109136;1273;22633;-83
2023/03/31 09:34:16;;;;;;;3.60;1.40;;;;;;;12.66;56.50;95639.16;105170;1275;5164498;-83
2023/03/31 09:36:47;;;;;;;3.00;1.30;;;;;;;12.78;56.69;95628.19;109128;1275;22587;-84
2023/03/31 09:39:27;;;;;;;4.60;1.40;;;;;;;12.94;56.16;95628.00;109101;1275;22584;-83
2023/03/31 09:41:59;;;;;;;3.30;1.30;;;;;;;12.94;56.32;95619.52;109107;1275;22502;-83
2023/03/31 09:44:36;;;;;;;5.70;1.20;;;;;;;13.05;56.55;95607.90;109069;1269;89878;-83
2023/03/31 09:47:18;;;;;;;3.50;1.40;;;;;;;13.05;56.22;95616.86;109147;1275;22535;-83
2023/03/31 09:49:48;;;;;;;3.40;1.90;;;;;;;13.25;56.74;95605.36;109146;1275;22560;-83
2023/03/31 09:52:26;;;;;;;2.60;1.50;;;;;;;13.48;56.78;95601.73;109198;1267;22620;-83
2023/03/31 09:55:02;;;;;;;2.80;1.00;;;;;;;13.71;55.66;95599.04;109072;1264;87737;-83
2023/03/31 09:57:38;;;;;;;3.80;1.30;;;;;;;13.64;54.55;95593.29;109162;1275;22634;-82
2023/03/31 10:00:17;;;;;;;3.70;1.80;;;;;;;13.62;55.00;95593.31;109162;1275;25424;-83
2023/03/31 10:02:53;;;;;;;5.00;1.60;;;;;;;13.70;55.04;95590.30;109147;1275;25424;-83
2023/03/31 10:05:32;;;;;;;7.60;2.40;;;;;;;13.82;55.95;95582.17;107554;1273;2084631;-83
2023/03/31 10:08:23;;;;;;;4.60;2.10;;;;;;;14.02;55.31;95583.70;109126;1275;24305;-83
2023/03/31 10:11:00;;;;;;;3.70;2.10;;;;;;;14.28;54.56;95582.34;109025;1276;22654;-83
2023/03/31 10:13:47;;;;;;;7.60;2.40;;;;;;;14.35;53.85;95582.44;109149;1269;22489;-83
2023/03/31 10:16:30;;;;;;;2.20;1.00;;;;;;;14.51;53.34;95577.50;109086;1275;22529;-83
2023/03/31 10:19:19;;;;;;;3.10;0.90;;;;;;;14.53;52.08;95567.05;109192;1269;22563;-83
2023/03/31 10:21:54;;;;;;;3.20;1.10;;;;;;;14.36;52.03;95567.56;109194;1275;23310;-83
2023/03/31 10:24:31;;;;;;;3.60;1.40;;;;;;;14.14;52.30;95576.31;109067;1275;66603;-83
2023/03/31 10:27:05;;;;;;;1.80;0.90;;;;;;;14.31;53.42;95571.79;109148;1265;22598;-83
2023/03/31 10:29:34;;;;;;;3.50;1.40;;;;;;;14.64;52.98;95566.05;109141;1272;23676;-83
2023/03/31 10:32:21;;;;;;;2.80;1.30;;;;;;;14.69;52.34;95555.31;107760;1275;1798159;-83
2023/03/31 10:34:54;;;;;;;4.10;1.50;;;;;;;14.29;51.64;95554.98;107698;1275;1762388;-83
2023/03/31 10:37:37;;;;;;;2.90;0.80;;;;;;;13.80;51.63;95561.03;109130;1275;22522;-83
2023/03/31 10:40:20;;;;;;;2.50;1.10;;;;;;;13.82;53.27;95555.63;109170;1275;24280;-82
2023/03/31 10:43:03;;;;;;;2.50;1.00;;;;;;;13.93;52.16;95555.20;109128;1270;24033;-83
2023/03/31 10:45:40;;;;;;;3.50;0.80;;;;;;;13.94;52.97;95547.36;109075;1275;46001;-83
2023/03/31 10:48:19;;;;;;;3.10;1.30;;;;;;;14.25;53.13;95547.11;109078;1275;22616;-83
2023/03/31 10:50:49;;;;;;;2.90;1.10;;;;;;;14.30;52.96;95544.03;109090;1269;23166;-84
2023/03/31 10:53:23;;;;;;;3.60;1.10;;;;;;;14.50;53.30;95544.21;109124;1275;22963;-83
2023/03/31 10:56:08;;;;;;;4.30;1.10;;;;;;;14.71;52.44;95534.19;107791;1275;1811134;-83
2023/03/31 10:59:05;;;;;;;3.80;1.20;;;;;;;14.64;51.21;95530.59;109159;1275;22527;-83
2023/03/31 11:01:47;;;;;;;5.40;1.90;;;;;;;14.65;51.48;95533.52;109060;1272;25431;-83
2023/03/31 11:04:44;;;;;;;3.90;1.80;;;;;;;15.00;51.61;95529.12;107514;1269;2125532;-83
2023/03/31 11:07:27;;;;;;;2.70;1.50;;;;;;;15.20;51.06;95519.45;109168;1275;23105;-83
2023/03/31 11:10:17;;;;;;;2.40;1.50;;;;;;;15.33;50.88;95524.98;109043;1270;25494;-83
2023/03/31 11:13:00;;;;;;;3.40;1.70;;;;;;;15.14;49.34;95514.45;109046;1275;22651;-83
2023/03/31 11:15:35;;;;;;;1.90;0.90;;;;;;;14.79;50.12;95513.43;109019;1275;111199;-83
2023/03/31 11:18:33;;;;;;;3.20;1.60;;;;;;;14.58;49.38;95506.85;109184;1275;24183;-83
2023/03/31 11:21:16;;;;;;;2.40;1.40;;;;;;;14.33;50.91;95510.00;109067;1275;22616;-83
2023/03/31 11:23:53;;;;;;;2.20;0.80;;;;;;;14.18;50.36;95505.91;109229;1275;22468;-83
2023/03/31 11:26:40;;;;;;;1.80;1.10;;;;;;;14.03;51.36;95501.33;109174;1275;22542;-83
2023/03/31 11:29:23;;;;;;;2.70;1.50;;;;;;;14.05;51.61;95505.23;109141;1275;22569;-83
2023/03/31 11:32:02;;;;;;;2.30;1.20;;;;;;;14.04;51.70;95503.14;109177;1275;22972;-83
2023/03/31 11:34:58;;;;;;;2.30;1.00;;;;;;;14.12;51.40;95493.77;109244;1268;106841;-83
2023/03/31 11:37:51;;;;;;;3.00;0.90;;;;;;;14.07;51.80;95497.31;109160;1275;22481;-83
2023/03/31 11:40:45;;;;;;;1.80;1.00;;;;;;;14.22;52.02;95486.05;109133;1275;25339;-83
2023/03/31 11:43:29;;;;;;;1.60;0.70;;;;;;;14.35;51.75;95483.11;109082;1268;25364;-83
2023/03/31 11:46:02;;;;;;;1.90;1.00;;;;;;;14.32;50.99;95471.96;107866;1276;1881859;-83
2023/03/31 11:48:41;;;;;;;2.20;1.20;;;;;;;14.17;51.11;95470.55;109104;1275;22490;-83
2023/03/31 11:51:22;;;;;;;2.00;0.90;;;;;;;14.13;52.19;95473.69;109148;1264;22695;-83
2023/03/31 11:54:02;;;;;;;2.70;1.30;;;;;;;14.18;51.86;95469.43;109143;1275;23724;-83
2023/03/31 11:56:32;;;;;;;;;;;;;;;14.29;52.21;95473.63;109206;1275;22446;-83
2023/03/31 11:59:12;;;;;;;2.70;1.20;;;;;;;14.56;52.72;95470.45;109162;1269;22566;-83
2023/03/31 12:01:53;;;;;;;2.90;1.10;;;;;;;14.69;51.61;95463.65;109174;1275;22517;-84
2023/03/31 12:04:33;;;;;;;2.30;1.20;;;;;;;14.70;51.87;95455.98;107724;1268;1864444;-83
2023/03/31 12:07:13;;;;;;;2.70;1.10;;;;;;;14.67;52.22;95459.83;109113;1268;22633;-83
2023/03/31 12:09:51;;;;;;;4.80;1.10;;;;;;;14.57;51.67;95452.71;109181;1273;22489;-83
2023/03/31 12:12:25;;;;;;;2.60;1.10;;;;;;;14.54;51.94;95454.09;109145;1253;22981;-83
2023/03/31 12:15:04;;;;;;;3.10;1.10;;;;;;;14.46;51.48;95449.76;109033;1272;84489;-83
2023/03/31 12:17:35;;;;;;;2.10;1.20;;;;;;;14.31;51.49;95439.77;109144;1275;22686;-83
2023/03/31 12:20:17;;;;;;;2.70;1.00;;;;;;;14.29;51.91;95445.11;109096;1275;22571;-83
2023/03/31 12:22:47;;;;;;;5.10;0.70;;;;;;;14.21;51.64;95438.38;109123;1269;22547;-82
2023/03/31 12:25:22;;;;;;;4.50;1.40;;;;;;;14.21;52.18;95435.57;109068;1269;81563;-83
2023/03/31 12:27:50;;;;;;;2.50;0.80;;;;;;;14.31;51.91;95428.97;109147;1275;22576;-83